createdAt,value
2018-10-19T00:01:56.208Z,12.70
2018-10-19T00:04:24.285Z,12.70
2018-10-19T00:06:52.361Z,12.70
2018-10-19T00:09:20.530Z,12.70
2018-10-19T00:11:48.591Z,12.70
2018-10-19T00:14:16.670Z,12.70
2018-10-19T00:16:44.732Z,12.70
2018-10-19T00:19:12.800Z,12.60
2018-10-19T00:21:41.158Z,12.60
2018-10-19T00:24:09.263Z,12.60
2018-10-19T00:26:37.349Z,12.70
2018-10-19T00:29:05.745Z,12.70
2018-10-19T00:31:33.780Z,12.70
2018-10-19T00:34:01.863Z,12.70
2018-10-19T00:36:29.916Z,12.70
2018-10-19T00:38:58.069Z,12.70
2018-10-19T00:41:26.168Z,12.70
2018-10-19T00:43:54.254Z,12.80
2018-10-19T00:46:22.299Z,12.70
2018-10-19T00:48:50.396Z,12.70
2018-10-19T00:51:18.506Z,12.70
2018-10-19T00:53:46.953Z,12.80
2018-10-19T00:56:15.018Z,12.90
2018-10-19T00:58:43.070Z,12.90
2018-10-19T01:01:11.158Z,12.90
2018-10-19T01:03:39.239Z,12.90
2018-10-19T01:06:07.310Z,12.90
2018-10-19T01:08:35.384Z,12.90
2018-10-19T01:11:03.547Z,12.80
2018-10-19T01:13:31.733Z,12.70
2018-10-19T01:15:59.795Z,12.70
2018-10-19T01:18:27.880Z,12.70
2018-10-19T01:20:56.997Z,12.70
2018-10-19T01:23:25.038Z,12.70
2018-10-19T01:25:53.100Z,12.70
2018-10-19T01:28:21.183Z,12.80
2018-10-19T01:30:49.255Z,12.80
2018-10-19T01:33:17.320Z,12.70
2018-10-19T01:35:45.507Z,12.80
2018-10-19T01:38:13.559Z,12.70
2018-10-19T01:40:41.682Z,12.80
2018-10-19T01:43:09.816Z,12.80
2018-10-19T01:45:42.188Z,12.70
2018-10-19T01:48:10.371Z,12.70
2018-10-19T01:50:38.439Z,12.70
2018-10-19T01:53:06.507Z,12.70
2018-10-19T01:55:34.636Z,12.70
2018-10-19T01:58:02.895Z,12.80
2018-10-19T02:00:31.028Z,12.80
2018-10-19T02:02:59.167Z,12.90
2018-10-19T02:05:27.300Z,12.90
2018-10-19T02:07:55.455Z,13.00
2018-10-19T02:10:23.539Z,13.00
2018-10-19T02:12:51.708Z,13.00
2018-10-19T02:15:19.824Z,13.00
2018-10-19T02:17:47.995Z,13.00
2018-10-19T02:20:16.111Z,13.00
2018-10-19T02:22:44.207Z,13.00
2018-10-19T02:25:12.669Z,13.00
2018-10-19T02:27:41.496Z,13.00
2018-10-19T02:30:09.656Z,13.00
2018-10-19T02:32:37.858Z,13.00
2018-10-19T02:35:06.099Z,13.00
2018-10-19T02:37:34.374Z,13.00
2018-10-19T02:40:02.753Z,13.00
2018-10-19T02:42:30.812Z,13.00
2018-10-19T02:44:59.119Z,13.00
2018-10-19T02:48:51.842Z,12.90
2018-10-19T02:51:20.025Z,12.90
2018-10-19T02:53:48.103Z,13.00
2018-10-19T02:56:16.174Z,13.00
2018-10-19T02:58:44.467Z,12.90
2018-10-19T03:01:12.632Z,12.90
2018-10-19T03:03:40.692Z,12.90
2018-10-19T03:06:08.980Z,12.90
2018-10-19T03:08:37.067Z,12.90
2018-10-19T03:11:05.564Z,13.00
2018-10-19T03:13:33.785Z,13.00
2018-10-19T03:16:01.887Z,12.90
2018-10-19T03:18:30.032Z,13.00
2018-10-19T03:20:58.158Z,12.90
2018-10-19T03:23:26.313Z,13.00
2018-10-19T03:25:54.469Z,13.00
2018-10-19T03:28:22.559Z,13.00
2018-10-19T03:30:50.944Z,13.00
2018-10-19T03:33:19.023Z,13.00
2018-10-19T03:35:47.082Z,13.00
2018-10-19T03:38:15.244Z,13.00
2018-10-19T03:40:43.303Z,13.00
2018-10-19T03:43:11.396Z,12.90
2018-10-19T03:45:39.548Z,13.00
2018-10-19T03:48:07.625Z,13.00
2018-10-19T03:50:35.704Z,13.00
2018-10-19T03:53:03.807Z,13.00
2018-10-19T03:55:31.891Z,13.00
2018-10-19T03:58:00.018Z,13.00
2018-10-19T04:00:28.096Z,13.00
2018-10-19T04:02:56.420Z,12.90
2018-10-19T04:05:25.236Z,13.00
2018-10-19T04:07:53.383Z,12.90
2018-10-19T04:10:21.823Z,12.90
2018-10-19T04:12:49.945Z,12.90
2018-10-19T04:15:18.896Z,12.90
2018-10-19T04:17:46.952Z,12.90
2018-10-19T04:20:15.038Z,12.90
2018-10-19T04:22:43.213Z,12.80
2018-10-19T04:25:11.371Z,12.80
2018-10-19T04:27:39.516Z,12.70
2018-10-19T04:30:08.030Z,12.70
2018-10-19T04:32:36.095Z,12.70
2018-10-19T04:35:04.531Z,12.70
2018-10-19T04:37:32.878Z,12.70
2018-10-19T04:40:01.088Z,12.60
2018-10-19T04:42:29.216Z,12.60
2018-10-19T04:44:57.407Z,12.60
2018-10-19T04:47:25.556Z,12.60
2018-10-19T04:49:53.663Z,12.50
2018-10-19T04:52:21.804Z,12.40
2018-10-19T04:54:50.536Z,12.30
2018-10-19T04:57:18.828Z,12.30
2018-10-19T04:59:47.663Z,12.30
2018-10-19T05:02:15.859Z,12.30
2018-10-19T05:04:44.059Z,12.30
2018-10-19T05:07:12.088Z,12.20
2018-10-19T05:09:40.192Z,12.20
2018-10-19T05:12:08.584Z,12.10
2018-10-19T05:14:36.695Z,12.00
2018-10-19T05:17:05.156Z,12.10
2018-10-19T05:19:33.267Z,12.10
2018-10-19T05:22:01.422Z,12.10
2018-10-19T05:24:29.526Z,12.00
2018-10-19T05:26:57.672Z,12.00
2018-10-19T05:29:25.819Z,12.30
2018-10-19T05:31:53.922Z,12.10
2018-10-19T05:34:22.000Z,12.10
2018-10-19T05:36:50.070Z,12.00
2018-10-19T05:39:18.154Z,11.90
2018-10-19T05:41:46.226Z,12.00
2018-10-19T05:44:14.301Z,12.10
2018-10-19T05:46:42.472Z,12.10
2018-10-19T05:49:10.534Z,12.10
2018-10-19T05:51:38.595Z,12.00
2018-10-19T05:54:06.720Z,12.00
2018-10-19T05:56:34.903Z,12.10
2018-10-19T05:59:03.054Z,12.10
2018-10-19T06:01:31.200Z,12.20
2018-10-19T06:03:59.286Z,12.20
2018-10-19T06:06:27.585Z,12.20
2018-10-19T06:08:56.022Z,12.20
2018-10-19T06:11:24.087Z,12.10
2018-10-19T06:13:52.183Z,12.20
2018-10-19T06:16:20.461Z,12.20
2018-10-19T06:18:48.536Z,12.20
2018-10-19T06:21:16.741Z,12.20
2018-10-19T06:23:44.934Z,12.30
2018-10-19T06:26:13.168Z,12.30
2018-10-19T06:28:41.236Z,12.30
2018-10-19T06:31:09.409Z,12.20
2018-10-19T06:33:37.509Z,12.20
2018-10-19T06:36:05.591Z,12.20
2018-10-19T06:38:33.726Z,12.20
2018-10-19T06:41:01.869Z,12.20
2018-10-19T06:43:29.973Z,12.20
2018-10-19T06:45:59.015Z,12.20
2018-10-19T06:48:27.141Z,12.20
2018-10-19T06:50:55.204Z,12.20
2018-10-19T06:53:23.274Z,12.20
2018-10-19T06:55:51.364Z,12.10
2018-10-19T06:58:19.543Z,12.10
2018-10-19T07:00:47.695Z,12.20
2018-10-19T07:03:15.771Z,12.20
2018-10-19T07:05:43.888Z,12.20
2018-10-19T07:08:11.981Z,12.10
2018-10-19T07:10:40.112Z,12.00
2018-10-19T07:13:08.255Z,12.00
2018-10-19T07:15:36.403Z,12.00
2018-10-19T07:18:05.105Z,12.00
2018-10-19T07:20:33.192Z,12.00
2018-10-19T07:23:01.315Z,12.00
2018-10-19T07:25:29.323Z,11.90
2018-10-19T07:27:57.496Z,11.80
2018-10-19T07:30:25.572Z,11.80
2018-10-19T07:32:53.691Z,11.80
2018-10-19T07:35:21.828Z,11.90
2018-10-19T07:37:49.931Z,11.80
2018-10-19T07:40:18.072Z,11.80
2018-10-19T07:42:46.159Z,11.90
2018-10-19T07:45:14.324Z,11.80
2018-10-19T07:47:42.577Z,11.80
2018-10-19T07:50:10.688Z,11.80
2018-10-19T07:52:39.674Z,11.80
2018-10-19T07:55:08.974Z,11.80
2018-10-19T07:57:37.060Z,11.70
2018-10-19T08:00:06.066Z,11.70
2018-10-19T08:02:34.225Z,11.80
2018-10-19T08:05:02.387Z,11.70
2018-10-19T08:07:30.496Z,11.70
2018-10-19T08:09:59.069Z,11.70
2018-10-19T08:12:27.219Z,11.70
2018-10-19T08:14:55.590Z,11.60
2018-10-19T08:17:23.710Z,11.60
2018-10-19T08:19:51.875Z,11.70
2018-10-19T08:22:20.219Z,11.70
2018-10-19T08:24:49.620Z,11.70
2018-10-19T08:27:17.747Z,11.70
2018-10-19T08:29:45.908Z,11.80
2018-10-19T08:32:14.155Z,11.80
2018-10-19T08:34:42.220Z,11.80
2018-10-19T08:37:10.282Z,11.80
2018-10-19T08:39:38.365Z,11.90
2018-10-19T08:42:06.951Z,11.90
2018-10-19T08:44:35.143Z,11.90
2018-10-19T08:47:03.451Z,11.90
2018-10-19T08:49:31.568Z,11.80
2018-10-19T08:51:59.828Z,11.80
2018-10-19T08:54:27.925Z,11.80
2018-10-19T08:56:55.988Z,11.70
2018-10-19T08:59:24.136Z,11.80
2018-10-19T09:01:52.275Z,11.80
2018-10-19T09:04:20.405Z,11.80
2018-10-19T09:06:48.485Z,11.80
2018-10-19T09:09:16.595Z,11.80
2018-10-19T09:11:44.683Z,11.80
2018-10-19T09:14:24.233Z,11.70
2018-10-19T09:16:52.354Z,11.70
2018-10-19T09:19:20.529Z,11.70
2018-10-19T09:21:48.580Z,11.60
2018-10-19T09:24:16.671Z,11.70
2018-10-19T09:26:45.023Z,11.70
2018-10-19T09:29:14.224Z,11.70
2018-10-19T09:31:42.180Z,11.70
2018-10-19T09:34:10.291Z,11.70
2018-10-19T09:36:38.736Z,11.70
2018-10-19T09:39:09.419Z,11.70
2018-10-19T09:41:37.555Z,11.70
2018-10-19T09:44:05.671Z,11.70
2018-10-19T09:46:34.107Z,11.70
2018-10-19T09:49:02.251Z,11.70
2018-10-19T09:51:30.478Z,11.70
2018-10-19T09:53:58.588Z,11.70
2018-10-19T09:56:26.753Z,11.70
2018-10-19T09:58:54.978Z,11.70
2018-10-19T10:01:29.355Z,11.80
2018-10-19T10:03:57.539Z,11.70
2018-10-19T10:06:25.705Z,11.70
2018-10-19T10:08:53.882Z,11.70
2018-10-19T10:11:22.191Z,11.70
2018-10-19T10:13:50.352Z,11.80
2018-10-19T10:16:18.663Z,11.70
2018-10-19T10:18:46.761Z,11.70
2018-10-19T10:21:14.933Z,11.70
2018-10-19T10:23:43.455Z,11.70
2018-10-19T10:26:11.769Z,11.70
2018-10-19T10:28:39.927Z,11.70
2018-10-19T10:31:08.285Z,11.60
2018-10-19T10:33:36.355Z,11.60
2018-10-19T10:36:04.689Z,11.70
2018-10-19T10:38:33.060Z,11.70
2018-10-19T10:41:01.633Z,11.80
2018-10-19T10:43:29.804Z,11.80
2018-10-19T10:45:58.051Z,11.80
2018-10-19T10:48:26.224Z,11.80
2018-10-19T10:50:54.751Z,11.80
2018-10-19T10:53:22.823Z,11.90
2018-10-19T10:55:50.951Z,11.90
2018-10-19T10:58:19.076Z,11.90
2018-10-19T11:00:47.160Z,11.90
2018-10-19T11:03:15.383Z,11.90
2018-10-19T11:05:43.492Z,12.00
2018-10-19T11:08:11.654Z,11.90
2018-10-19T11:10:40.047Z,11.90
2018-10-19T11:13:08.188Z,11.90
2018-10-19T11:15:36.405Z,11.90
2018-10-19T11:18:04.731Z,11.90
2018-10-19T11:20:32.967Z,12.00
2018-10-19T11:23:01.256Z,12.00
2018-10-19T11:25:29.460Z,11.90
2018-10-19T11:27:57.629Z,12.00
2018-10-19T11:30:25.739Z,12.00
2018-10-19T11:32:53.828Z,12.00
2018-10-19T11:35:22.001Z,12.10
2018-10-19T11:37:50.251Z,12.10
2018-10-19T11:40:29.695Z,12.10
2018-10-19T11:42:58.117Z,12.20
2018-10-19T11:45:27.531Z,12.30
2018-10-19T11:47:55.656Z,12.20
2018-10-19T11:50:23.729Z,12.30
2018-10-19T11:52:51.972Z,12.20
2018-10-19T11:55:20.221Z,12.30
2018-10-19T11:57:49.070Z,12.20
2018-10-19T12:00:17.354Z,12.30
2018-10-19T12:02:45.545Z,12.30
2018-10-19T12:05:13.728Z,12.40
2018-10-19T12:07:42.313Z,12.20
2018-10-19T12:10:11.815Z,12.30
2018-10-19T12:12:40.298Z,12.30
2018-10-19T12:15:09.599Z,12.30
2018-10-19T12:17:38.083Z,12.30
2018-10-19T12:20:08.087Z,12.30
2018-10-19T12:22:36.434Z,12.40
2018-10-19T12:25:05.178Z,12.30
2018-10-19T12:27:33.320Z,12.40
2018-10-19T12:30:01.419Z,12.40
2018-10-19T12:32:29.576Z,12.50
2018-10-19T12:34:57.839Z,12.50
2018-10-19T12:37:26.094Z,12.60
2018-10-19T12:39:54.295Z,12.50
2018-10-19T12:42:22.359Z,12.50
2018-10-19T12:44:50.489Z,12.50
2018-10-19T12:47:35.158Z,12.40
2018-10-19T12:50:03.460Z,12.50
2018-10-19T12:52:31.576Z,12.60
2018-10-19T12:54:59.840Z,12.50
2018-10-19T12:57:28.017Z,12.50
2018-10-19T12:59:56.484Z,12.50
2018-10-19T13:02:24.593Z,12.50
2018-10-19T13:04:52.756Z,12.50
2018-10-19T13:07:21.022Z,12.50
2018-10-19T13:09:49.288Z,12.50
2018-10-19T13:12:17.432Z,12.60
2018-10-19T13:14:45.575Z,12.40
2018-10-19T13:17:13.736Z,12.50
2018-10-19T13:19:41.901Z,12.50
2018-10-19T13:22:10.154Z,12.50
2018-10-19T13:24:38.316Z,12.60
2018-10-19T13:27:06.530Z,12.60
2018-10-19T13:29:34.602Z,12.50
2018-10-19T13:32:03.776Z,12.60
2018-10-19T13:34:32.026Z,12.70
2018-10-19T13:37:00.235Z,12.80
2018-10-19T13:39:28.347Z,12.80
2018-10-19T13:41:56.619Z,12.90
2018-10-19T13:44:24.898Z,13.00
2018-10-19T13:46:53.593Z,13.00
2018-10-19T13:49:22.800Z,13.00
2018-10-19T13:51:51.292Z,12.90
2018-10-19T13:54:19.443Z,12.90
2018-10-19T13:56:47.599Z,12.90
2018-10-19T13:59:15.855Z,12.60
2018-10-19T14:01:43.980Z,12.60
2018-10-19T14:04:12.081Z,12.60
2018-10-19T14:06:40.211Z,12.70
2018-10-19T14:09:09.143Z,12.70
2018-10-19T14:11:37.621Z,12.70
2018-10-19T14:14:05.703Z,12.70
2018-10-19T14:16:33.979Z,12.70
2018-10-19T14:19:02.299Z,12.70
2018-10-19T14:21:30.546Z,12.70
2018-10-19T14:23:58.825Z,12.60
2018-10-19T14:26:26.896Z,12.50
2018-10-19T14:28:55.231Z,12.60
2018-10-19T14:31:23.647Z,12.70
2018-10-19T14:33:51.830Z,13.00
2018-10-19T14:36:20.089Z,13.00
2018-10-19T14:38:48.252Z,13.10
2018-10-19T14:41:16.399Z,12.90
2018-10-19T14:43:44.421Z,12.80
2018-10-19T14:46:12.710Z,12.70
2018-10-19T14:48:41.105Z,12.60
2018-10-19T14:51:09.518Z,12.60
2018-10-19T14:53:37.627Z,12.60
2018-10-19T14:56:05.802Z,12.60
2018-10-19T14:58:33.936Z,12.80
2018-10-19T15:01:02.099Z,12.70
2018-10-19T15:03:31.071Z,12.60
2018-10-19T15:05:59.244Z,12.60
2018-10-19T15:08:27.451Z,12.60
2018-10-19T15:10:55.728Z,12.50
2018-10-19T15:13:23.936Z,12.50
2018-10-19T15:15:52.056Z,12.50
2018-10-19T15:18:20.311Z,12.50
2018-10-19T15:20:48.377Z,12.50
2018-10-19T15:23:16.564Z,12.40
2018-10-19T15:25:44.712Z,12.40
2018-10-19T15:28:12.832Z,12.40
2018-10-19T15:30:40.975Z,12.30
2018-10-19T15:33:09.281Z,12.30
2018-10-19T15:35:37.408Z,12.20
2018-10-19T15:38:05.520Z,12.30
2018-10-19T15:40:33.713Z,12.20
2018-10-19T15:43:01.844Z,12.20
2018-10-19T15:45:29.933Z,12.20
2018-10-19T15:47:58.200Z,12.20
2018-10-19T15:50:26.247Z,12.10
2018-10-19T15:52:54.408Z,12.20
2018-10-19T15:55:22.524Z,12.20
2018-10-19T15:57:50.728Z,12.20
2018-10-19T16:00:18.939Z,12.20
2018-10-19T16:02:46.973Z,12.10
2018-10-19T16:05:15.098Z,12.10
2018-10-19T16:07:43.185Z,12.10
2018-10-19T16:10:11.549Z,12.10
2018-10-19T16:12:39.641Z,12.10
2018-10-19T16:15:08.919Z,12.10
2018-10-19T16:17:37.005Z,12.10
2018-10-19T16:20:06.996Z,12.10
2018-10-19T16:22:35.093Z,12.10
2018-10-19T16:25:03.323Z,12.20
2018-10-19T16:27:31.524Z,12.10
2018-10-19T16:29:59.803Z,12.10
2018-10-19T16:32:27.872Z,12.00
2018-10-19T16:34:55.964Z,12.00
2018-10-19T16:37:24.199Z,12.10
2018-10-19T16:39:52.283Z,12.00
2018-10-19T16:42:20.453Z,12.30
2018-10-19T16:44:48.572Z,12.30
2018-10-19T16:47:16.768Z,12.40
2018-10-19T16:49:44.941Z,12.20
2018-10-19T16:52:13.198Z,12.20
2018-10-19T16:54:41.315Z,12.20
2018-10-19T16:57:09.557Z,12.10
2018-10-19T16:59:37.993Z,12.10
2018-10-19T17:02:06.128Z,12.10
2018-10-19T17:04:35.381Z,12.00
2018-10-19T17:07:03.512Z,12.00
2018-10-19T17:09:31.712Z,12.10
2018-10-19T17:11:59.897Z,12.00
2018-10-19T17:14:28.008Z,12.00
2018-10-19T17:16:56.300Z,12.10
2018-10-19T17:19:24.502Z,12.00
2018-10-19T17:21:52.643Z,12.00
2018-10-19T17:24:20.956Z,12.00
2018-10-19T17:26:48.999Z,11.90
2018-10-19T17:29:17.266Z,11.90
2018-10-19T17:31:45.513Z,11.90
2018-10-19T17:34:13.703Z,12.00
2018-10-19T17:36:41.907Z,11.90
2018-10-19T17:39:10.916Z,11.90
2018-10-19T17:41:39.051Z,11.90
2018-10-19T17:44:07.617Z,11.90
2018-10-19T17:46:35.887Z,11.80
2018-10-19T17:49:04.230Z,11.80
2018-10-19T17:51:34.008Z,11.90
2018-10-19T17:54:02.312Z,12.00
2018-10-19T17:56:30.401Z,12.00
2018-10-19T17:58:58.555Z,11.90
2018-10-19T18:01:26.693Z,11.90
2018-10-19T18:03:54.890Z,11.90
2018-10-19T18:06:23.042Z,11.90
2018-10-19T18:08:51.281Z,11.90
2018-10-19T18:11:19.411Z,12.00
2018-10-19T18:13:47.564Z,11.90
2018-10-19T18:16:15.783Z,11.90
2018-10-19T18:18:44.102Z,11.80
2018-10-19T18:21:12.334Z,11.80
2018-10-19T18:23:40.625Z,11.90
2018-10-19T18:26:08.863Z,11.90
2018-10-19T18:28:37.892Z,11.90
2018-10-19T18:31:06.012Z,12.00
2018-10-19T18:33:34.196Z,12.00
2018-10-19T18:36:02.506Z,12.00
2018-10-19T18:38:30.700Z,12.00
2018-10-19T18:40:58.830Z,12.00
2018-10-19T18:43:27.033Z,11.90
2018-10-19T18:45:55.172Z,12.00
2018-10-19T18:48:26.307Z,12.00
2018-10-19T18:50:55.035Z,12.00
2018-10-19T18:53:23.217Z,12.00
2018-10-19T18:55:51.333Z,12.10
2018-10-19T18:58:19.532Z,12.00
2018-10-19T19:00:47.808Z,12.00
2018-10-19T19:03:16.282Z,11.90
2018-10-19T19:05:44.443Z,12.00
2018-10-19T19:08:12.828Z,12.00
2018-10-19T19:10:41.078Z,12.00
2018-10-19T19:13:14.661Z,12.00
2018-10-19T19:15:42.892Z,11.90
2018-10-19T19:18:11.264Z,11.90
2018-10-19T19:20:39.783Z,11.90
2018-10-19T19:23:08.124Z,11.80
2018-10-19T19:25:41.737Z,11.80
2018-10-19T19:28:09.968Z,11.80
2018-10-19T19:30:38.149Z,11.80
2018-10-19T19:33:11.776Z,11.90
2018-10-19T19:35:40.109Z,11.90
2018-10-19T19:38:08.296Z,11.90
2018-10-19T19:40:42.059Z,11.90
2018-10-19T19:43:10.272Z,12.00
2018-10-19T19:45:38.480Z,12.00
2018-10-19T19:48:12.103Z,12.00
2018-10-19T19:50:40.329Z,11.90
2018-10-19T19:53:08.476Z,11.90
2018-10-19T19:55:36.837Z,11.90
2018-10-19T19:58:05.345Z,11.90
2018-10-19T20:00:34.040Z,11.90
2018-10-19T20:03:02.768Z,11.90
2018-10-19T20:05:30.939Z,11.90
2018-10-19T20:07:59.448Z,11.90
2018-10-19T20:10:28.188Z,11.90
2018-10-19T20:12:56.424Z,11.80
2018-10-19T20:15:24.564Z,11.80
2018-10-19T20:17:52.748Z,11.80
2018-10-19T20:20:20.927Z,11.80
2018-10-19T20:22:49.219Z,11.80
2018-10-19T20:25:17.432Z,11.80
2018-10-19T20:27:45.553Z,11.80
2018-10-19T20:30:14.231Z,11.90
2018-10-19T20:32:42.411Z,12.20
2018-10-19T20:35:11.187Z,12.30
2018-10-19T20:37:39.382Z,12.40
2018-10-19T20:40:10.771Z,12.10
2018-10-19T20:42:38.891Z,12.00
2018-10-19T20:45:07.222Z,11.90
2018-10-19T20:47:35.355Z,11.90
2018-10-19T20:50:03.787Z,11.80
2018-10-19T20:52:31.984Z,11.80
2018-10-19T20:55:00.174Z,11.70
2018-10-19T20:57:28.399Z,11.70
2018-10-19T20:59:56.589Z,11.70
2018-10-19T21:02:26.341Z,11.70
2018-10-19T21:04:54.565Z,11.70
2018-10-19T21:07:22.983Z,11.70
2018-10-19T21:09:51.217Z,11.60
2018-10-19T21:12:20.035Z,11.60
2018-10-19T21:14:48.235Z,11.60
2018-10-19T21:17:16.534Z,11.60
2018-10-19T21:19:44.710Z,11.60
2018-10-19T21:22:13.059Z,11.50
2018-10-19T21:24:41.395Z,11.50
2018-10-19T21:27:09.851Z,11.50
2018-10-19T21:29:37.999Z,11.50
2018-10-19T21:32:07.256Z,11.50
2018-10-19T21:34:35.397Z,11.40
2018-10-19T21:37:04.461Z,11.30
2018-10-19T21:39:32.747Z,11.30
2018-10-19T21:42:01.317Z,11.40
2018-10-19T21:44:29.806Z,11.40
2018-10-19T21:47:06.827Z,11.30
2018-10-19T21:49:39.143Z,11.40
2018-10-19T21:52:08.557Z,11.40
2018-10-19T21:54:36.839Z,11.40
2018-10-19T21:57:05.253Z,11.40
2018-10-19T21:59:33.370Z,11.30
2018-10-19T22:02:01.682Z,11.30
2018-10-19T22:04:29.852Z,11.30
2018-10-19T22:06:58.051Z,11.30
2018-10-19T22:09:26.203Z,11.30
2018-10-19T22:11:54.492Z,11.30
2018-10-19T22:14:22.661Z,11.30
2018-10-19T22:16:50.860Z,11.30
2018-10-19T22:19:19.021Z,11.20
2018-10-19T22:21:47.200Z,11.20
2018-10-19T22:24:15.444Z,11.20
2018-10-19T22:26:43.617Z,11.20
2018-10-19T22:29:11.947Z,11.30
2018-10-19T22:31:39.984Z,11.40
2018-10-19T22:34:08.217Z,11.40
2018-10-19T22:36:36.296Z,11.30
2018-10-19T22:39:05.692Z,11.30
2018-10-19T22:41:33.776Z,11.30
2018-10-19T22:44:01.841Z,11.30
2018-10-19T22:46:29.967Z,11.40
2018-10-19T22:48:58.110Z,11.30
2018-10-19T22:51:26.408Z,11.30
2018-10-19T22:53:54.577Z,11.20
2018-10-19T22:56:22.846Z,11.20
2018-10-19T22:58:51.011Z,11.20
2018-10-19T23:01:19.207Z,11.20
2018-10-19T23:03:47.353Z,11.30
2018-10-19T23:06:15.536Z,11.20
2018-10-19T23:08:43.917Z,11.30
2018-10-19T23:11:12.102Z,11.20
2018-10-19T23:13:40.313Z,11.20
2018-10-19T23:16:08.444Z,11.10
2018-10-19T23:18:36.677Z,11.10
2018-10-19T23:21:04.965Z,11.00
2018-10-19T23:23:33.072Z,11.10
2018-10-19T23:26:01.300Z,11.10
2018-10-19T23:28:29.546Z,11.10
2018-10-19T23:30:57.752Z,11.10
2018-10-19T23:33:25.972Z,11.10
2018-10-19T23:35:54.139Z,11.10
2018-10-19T23:38:22.336Z,11.10
2018-10-19T23:40:50.485Z,11.10
2018-10-19T23:43:18.692Z,11.00
2018-10-19T23:45:46.835Z,11.00
2018-10-19T23:48:15.022Z,10.90
2018-10-19T23:50:43.215Z,10.90
2018-10-19T23:53:11.482Z,10.90
2018-10-19T23:55:39.535Z,10.80
2018-10-19T23:58:07.699Z,10.80
